createdAt,value
2018-05-10T00:00:55.659Z,6.13
2018-05-10T00:04:58.481Z,6.40
2018-05-10T00:09:03.055Z,6.10
2018-05-10T00:13:05.574Z,6.83
2018-05-10T00:17:08.891Z,6.67
2018-05-10T00:21:12.234Z,6.10
2018-05-10T00:25:14.779Z,7.33
2018-05-10T00:29:17.374Z,6.23
2018-05-10T00:33:20.702Z,7.13
2018-05-10T00:37:23.271Z,7.27
2018-05-10T00:41:26.595Z,7.00
2018-05-10T00:45:29.889Z,7.73
2018-05-10T00:49:32.474Z,6.87
2018-05-10T00:53:34.999Z,7.57
2018-05-10T00:57:37.562Z,7.37
2018-05-10T01:01:40.847Z,7.23
2018-05-10T01:05:47.534Z,6.97
2018-05-10T01:09:50.057Z,6.90
2018-05-10T01:13:53.475Z,7.37
2018-05-10T01:17:56.976Z,7.20
2018-05-10T01:21:59.530Z,7.30
2018-05-10T01:26:02.818Z,7.60
2018-05-10T01:30:05.499Z,7.23
2018-05-10T01:34:08.011Z,7.27
2018-05-10T01:38:10.573Z,7.67
2018-05-10T01:42:13.863Z,7.07
2018-05-10T01:46:18.536Z,8.13
2018-05-10T01:50:21.058Z,7.57
2018-05-10T01:54:24.466Z,7.53
2018-05-10T01:58:34.787Z,7.77
2018-05-10T02:02:37.371Z,8.40
2018-05-10T02:06:40.658Z,9.53
2018-05-10T02:10:43.218Z,11.53
2018-05-10T02:14:45.752Z,16.57
2018-05-10T02:18:48.720Z,20.27
2018-05-10T02:22:52.024Z,22.10
2018-05-10T02:26:54.706Z,25.47
2018-05-10T02:30:59.255Z,26.43
2018-05-10T02:35:01.895Z,26.67
2018-05-10T02:39:04.428Z,26.13
2018-05-10T02:43:07.114Z,27.10
2018-05-10T02:47:09.661Z,26.97
2018-05-10T02:51:12.269Z,27.27
2018-05-10T02:55:14.792Z,28.93
2018-05-10T02:59:17.369Z,28.67
2018-05-10T03:03:19.934Z,31.10
2018-05-10T03:07:22.483Z,30.07
2018-05-10T03:11:25.015Z,31.40
2018-05-10T03:15:27.570Z,32.63
2018-05-10T03:19:31.866Z,31.67
2018-05-10T03:23:34.427Z,34.30
2018-05-10T03:27:37.718Z,33.90
2018-05-10T03:31:40.371Z,33.50
2018-05-10T03:35:42.911Z,34.40
2018-05-10T03:39:45.478Z,35.20
2018-05-10T03:43:51.815Z,33.23
2018-05-10T03:47:54.377Z,34.23
2018-05-10T03:51:57.671Z,34.67
2018-05-10T03:56:00.225Z,36.87
2018-05-10T04:00:03.743Z,37.20
2018-05-10T04:04:27.982Z,36.60
2018-05-10T04:08:42.418Z,36.97
2018-05-10T04:12:45.012Z,40.23
2018-05-10T04:16:47.555Z,38.63
2018-05-10T04:20:51.047Z,39.13
2018-05-10T04:24:53.584Z,36.93
2018-05-10T04:28:56.899Z,38.83
2018-05-10T04:33:00.184Z,38.47
2018-05-10T04:37:02.754Z,37.67
2018-05-10T04:41:06.054Z,37.07
2018-05-10T04:45:09.461Z,37.73
2018-05-10T04:49:11.983Z,36.00
2018-05-10T04:53:15.623Z,38.20
2018-05-10T04:57:18.155Z,38.37
2018-05-10T05:01:20.730Z,37.50
2018-05-10T05:05:24.019Z,35.90
2018-05-10T05:09:26.575Z,33.73
2018-05-10T05:13:29.100Z,33.80
2018-05-10T05:17:31.990Z,32.50
2018-05-10T05:21:34.627Z,31.83
2018-05-10T05:25:37.108Z,32.17
2018-05-10T05:29:39.641Z,33.87
2018-05-10T05:33:42.282Z,32.23
2018-05-10T05:37:45.399Z,33.93
2018-05-10T05:41:47.955Z,31.23
2018-05-10T05:45:50.478Z,30.47
2018-05-10T05:49:53.035Z,27.73
2018-05-10T05:53:56.335Z,28.40
2018-05-10T05:57:58.903Z,28.03
2018-05-10T06:02:01.445Z,28.57
2018-05-10T06:06:04.384Z,28.77
2018-05-10T06:10:09.602Z,31.20
2018-05-10T06:14:12.159Z,31.10
2018-05-10T06:18:15.460Z,32.40
2018-05-10T06:22:18.802Z,33.30
2018-05-10T06:26:21.332Z,32.67
2018-05-10T06:30:23.894Z,33.30
2018-05-10T06:34:26.411Z,33.63
2018-05-10T06:38:29.753Z,35.70
2018-05-10T06:42:32.313Z,33.50
2018-05-10T06:46:34.876Z,32.30
2018-05-10T06:50:37.446Z,35.60
2018-05-10T06:54:40.033Z,32.70
2018-05-10T06:58:42.543Z,32.37
2018-05-10T07:02:45.094Z,32.23
2018-05-10T07:06:47.626Z,31.73
2018-05-10T07:10:50.186Z,33.60
2018-05-10T07:14:54.720Z,36.30
2018-05-10T07:18:57.603Z,37.67
2018-05-10T07:23:00.147Z,38.10
2018-05-10T07:27:02.734Z,36.67
2018-05-10T07:31:05.255Z,39.03
2018-05-10T07:35:08.906Z,38.90
2018-05-10T07:39:12.199Z,38.63
2018-05-10T07:43:14.935Z,36.83
2018-05-10T07:47:18.231Z,38.50
2018-05-10T07:51:20.795Z,40.00
2018-05-10T07:55:23.356Z,40.00
2018-05-10T07:59:25.914Z,41.07
2018-05-10T08:03:28.488Z,41.60
2018-05-10T08:07:31.087Z,43.43
2018-05-10T08:11:34.384Z,44.27
2018-05-10T08:15:40.832Z,45.87
2018-05-10T08:19:49.534Z,42.80
2018-05-10T08:23:54.216Z,43.90
2018-05-10T08:27:57.510Z,48.37
2018-05-10T08:32:00.150Z,44.20
2018-05-10T08:36:03.447Z,41.37
2018-05-10T08:40:11.648Z,43.93
2018-05-10T08:44:18.681Z,40.63
2018-05-10T08:48:22.230Z,44.23
2018-05-10T08:52:24.751Z,42.70
2018-05-10T08:56:28.082Z,40.27
2018-05-10T09:00:30.606Z,41.43
2018-05-10T09:04:33.327Z,39.13
2018-05-10T09:08:35.872Z,39.53
2018-05-10T09:12:40.501Z,42.33
2018-05-10T09:16:48.132Z,41.07
2018-05-10T09:20:52.436Z,42.90
2018-05-10T09:24:55.774Z,42.00
2018-05-10T09:28:58.332Z,42.03
2018-05-10T09:33:00.859Z,40.30
2018-05-10T09:37:03.730Z,38.03
2018-05-10T09:41:07.274Z,36.70
2018-05-10T09:45:09.839Z,37.07
2018-05-10T09:49:12.364Z,37.70
2018-05-10T09:53:15.109Z,35.57
2018-05-10T09:57:17.647Z,35.23
2018-05-10T10:01:20.204Z,31.50
2018-05-10T10:05:22.723Z,35.93
2018-05-10T10:09:25.314Z,32.17
2018-05-10T10:13:27.940Z,35.07
2018-05-10T10:17:30.587Z,35.43
2018-05-10T10:21:33.038Z,35.30
2018-05-10T10:25:35.742Z,35.87
2018-05-10T10:29:38.265Z,36.63
2018-05-10T10:33:40.909Z,35.03
2018-05-10T10:41:31.272Z,38.03
2018-05-10T10:45:33.843Z,38.67
2018-05-10T10:49:37.433Z,38.90
2018-05-10T10:53:40.716Z,39.60
2018-05-10T10:57:43.267Z,40.00
2018-05-10T11:01:45.810Z,38.57
2018-05-10T11:05:49.230Z,40.37
2018-05-10T11:09:51.747Z,41.43
2018-05-10T11:13:56.293Z,39.00
2018-05-10T11:17:58.807Z,39.87
2018-05-10T11:22:03.643Z,42.50
2018-05-10T11:26:12.291Z,38.33
2018-05-10T11:30:16.045Z,38.50
2018-05-10T11:34:19.538Z,39.37
2018-05-10T11:38:22.099Z,37.60
2018-05-10T11:42:25.405Z,38.83
2018-05-10T11:46:30.676Z,38.40
2018-05-10T11:50:35.224Z,33.67
2018-05-10T11:54:37.779Z,31.93
2018-05-10T11:58:40.303Z,29.30
2018-05-10T12:02:43.949Z,25.73
2018-05-10T12:06:46.513Z,23.33
2018-05-10T12:10:53.430Z,20.23
2018-05-10T12:14:55.942Z,19.50
2018-05-10T12:18:58.590Z,18.77
2018-05-10T12:23:01.456Z,19.23
2018-05-10T12:27:05.926Z,16.90
2018-05-10T12:31:09.493Z,12.87
2018-05-10T12:35:12.113Z,10.17
2018-05-10T12:39:15.395Z,9.57
2018-05-10T12:43:19.367Z,7.33
2018-05-10T12:47:22.699Z,8.73
2018-05-10T12:51:27.991Z,8.97
2018-05-10T12:55:31.471Z,7.97
2018-05-10T12:59:34.160Z,8.23
2018-05-10T13:03:36.992Z,7.43
2018-05-10T13:07:41.561Z,6.90
2018-05-10T13:11:44.855Z,8.00
2018-05-10T13:15:49.530Z,7.27
2018-05-10T13:19:53.854Z,6.70
2018-05-10T13:23:57.459Z,5.57
2018-05-10T13:28:01.935Z,5.17
2018-05-10T13:32:04.627Z,4.77
2018-05-10T13:36:07.152Z,4.90
2018-05-10T13:40:09.722Z,4.77
2018-05-10T13:44:12.247Z,5.53
2018-05-10T13:48:15.799Z,6.07
2018-05-10T13:52:18.315Z,6.37
2018-05-10T13:56:21.855Z,6.53
2018-05-10T14:00:25.162Z,6.97
2018-05-10T14:04:27.756Z,7.97
2018-05-10T14:08:30.267Z,7.83
2018-05-10T14:12:32.852Z,9.57
2018-05-10T14:16:35.469Z,9.50
2018-05-10T14:20:39.379Z,13.37
2018-05-10T14:24:41.943Z,13.50
2018-05-10T14:28:45.660Z,15.63
2018-05-10T14:32:48.192Z,15.80
2018-05-10T14:36:52.527Z,15.63
2018-05-10T14:40:55.924Z,17.70
2018-05-10T14:44:58.557Z,18.00
2018-05-10T14:49:07.893Z,17.80
2018-05-10T14:53:11.983Z,16.73
2018-05-10T14:57:16.302Z,17.37
2018-05-10T15:01:19.839Z,14.93
2018-05-10T15:05:23.133Z,16.40
2018-05-10T15:09:25.730Z,15.80
2018-05-10T15:13:28.277Z,16.03
2018-05-10T15:17:31.214Z,16.30
2018-05-10T15:21:33.774Z,14.77
2018-05-10T15:25:36.357Z,15.30
2018-05-10T15:29:39.700Z,16.03
2018-05-10T15:33:43.278Z,14.97
2018-05-10T15:37:48.504Z,14.87
2018-05-10T15:41:51.058Z,13.63
2018-05-10T15:45:53.599Z,14.90
2018-05-10T15:49:56.162Z,13.80
2018-05-10T15:53:59.457Z,14.47
2018-05-10T15:58:02.019Z,14.03
2018-05-10T16:02:06.506Z,14.73
2018-05-10T16:06:09.605Z,15.13
2018-05-10T16:10:12.374Z,14.83
2018-05-10T16:14:15.062Z,15.17
2018-05-10T16:18:17.603Z,15.43
2018-05-10T16:22:24.787Z,14.73
2018-05-10T16:26:27.341Z,15.27
2018-05-10T16:30:29.935Z,14.73
2018-05-10T16:34:32.743Z,15.17
2018-05-10T16:38:36.387Z,16.27
2018-05-10T16:42:40.107Z,16.07
2018-05-10T16:46:43.220Z,15.83
2018-05-10T16:50:45.902Z,15.80
2018-05-10T16:54:49.215Z,15.83
2018-05-10T16:58:51.782Z,14.27
2018-05-10T17:02:55.147Z,15.93
2018-05-10T17:06:57.703Z,16.43
2018-05-10T17:11:00.950Z,15.37
2018-05-10T17:15:05.350Z,14.70
2018-05-10T17:19:07.992Z,14.80
2018-05-10T17:23:10.531Z,15.17
2018-05-10T17:27:13.095Z,14.00
2018-05-10T17:31:15.672Z,15.67
2018-05-10T17:35:19.182Z,14.50
2018-05-10T17:39:21.707Z,15.63
2018-05-10T17:43:25.058Z,16.00
2018-05-10T17:47:27.635Z,15.50
2018-05-10T17:51:31.368Z,16.03
2018-05-10T17:55:34.662Z,15.93
2018-05-10T17:59:37.207Z,16.77
2018-05-10T18:03:39.762Z,16.03
2018-05-10T18:07:42.322Z,16.07
2018-05-10T18:11:44.876Z,15.60
2018-05-10T18:15:47.468Z,15.47
2018-05-10T18:19:50.003Z,16.07
2018-05-10T18:23:52.643Z,16.73
2018-05-10T18:27:55.247Z,17.63
2018-05-10T18:31:58.771Z,16.60
2018-05-10T18:36:02.062Z,17.70
2018-05-10T18:40:04.634Z,16.63
2018-05-10T18:44:08.194Z,19.20
2018-05-10T18:48:11.470Z,23.73
2018-05-10T18:52:14.000Z,25.07
2018-05-10T18:56:16.572Z,20.37
2018-05-10T19:00:19.137Z,18.80
2018-05-10T19:04:21.678Z,17.20
2018-05-10T19:08:24.236Z,17.33
2018-05-10T19:12:26.807Z,17.30
2018-05-10T19:16:30.274Z,17.07
2018-05-10T19:20:32.833Z,18.57
2018-05-10T19:24:38.963Z,17.27
2018-05-10T19:28:41.836Z,18.90
2018-05-10T19:32:44.371Z,17.30
2018-05-10T19:36:46.930Z,18.83
2018-05-10T19:40:50.255Z,17.37
2018-05-10T19:44:54.865Z,16.87
2018-05-10T19:49:01.155Z,17.87
2018-05-10T19:53:03.789Z,17.50
2018-05-10T19:57:06.379Z,16.07
2018-05-10T20:01:08.931Z,17.03
2018-05-10T20:05:11.660Z,15.37
2018-05-10T20:09:15.142Z,14.80
2018-05-10T20:13:17.673Z,14.53
2018-05-10T20:17:22.002Z,15.80
2018-05-10T20:21:24.575Z,15.60
2018-05-10T20:25:27.244Z,14.63
2018-05-10T20:29:29.819Z,14.90
2018-05-10T20:33:32.429Z,15.33
2018-05-10T20:37:34.954Z,14.57
2018-05-10T20:41:37.554Z,14.43
2018-05-10T20:45:41.099Z,14.47
2018-05-10T20:49:43.794Z,15.60
2018-05-10T20:53:46.355Z,14.60
2018-05-10T20:57:51.264Z,12.83
2018-05-10T21:01:53.952Z,13.30
2018-05-10T21:05:56.468Z,13.63
2018-05-10T21:10:00.842Z,13.40
2018-05-10T21:14:03.755Z,15.00
2018-05-10T21:18:07.386Z,14.20
2018-05-10T21:22:09.962Z,14.20
2018-05-10T21:26:12.678Z,14.27
2018-05-10T21:30:16.494Z,13.07
2018-05-10T21:34:19.146Z,13.33
2018-05-10T21:38:21.706Z,13.07
2018-05-10T21:42:25.224Z,12.40
2018-05-10T21:46:27.781Z,11.77
2018-05-10T21:50:30.347Z,11.17
2018-05-10T21:54:32.996Z,10.50
2018-05-10T21:58:35.523Z,11.23
2018-05-10T22:02:38.078Z,10.77
2018-05-10T22:06:40.670Z,10.33
2018-05-10T22:10:43.504Z,10.90
2018-05-10T22:14:46.023Z,9.60
2018-05-10T22:18:48.988Z,9.77
2018-05-10T22:22:54.421Z,10.63
2018-05-10T22:26:56.979Z,11.30
2018-05-10T22:30:59.742Z,10.40
2018-05-10T22:35:02.373Z,10.13
2018-05-10T22:39:06.934Z,10.80
2018-05-10T22:43:09.579Z,10.87
2018-05-10T22:47:12.128Z,11.47
2018-05-10T22:51:14.681Z,9.53
2018-05-10T22:55:17.204Z,10.17
2018-05-10T22:59:20.515Z,9.87
2018-05-10T23:03:24.021Z,9.43
2018-05-10T23:07:26.575Z,10.10
2018-05-10T23:11:29.243Z,10.03
2018-05-10T23:15:31.914Z,10.23
2018-05-10T23:19:34.436Z,10.03
2018-05-10T23:23:37.123Z,9.47
2018-05-10T23:27:39.819Z,9.63
2018-05-10T23:31:42.726Z,9.37
2018-05-10T23:35:45.242Z,8.80
2018-05-10T23:39:47.799Z,8.57
2018-05-10T23:43:50.333Z,8.77
2018-05-10T23:47:52.927Z,8.97
2018-05-10T23:51:56.221Z,10.03
2018-05-10T23:55:58.861Z,9.87
